Bologna / Borgo Panigale Airport LIPE

Flugplatz Daten

Name: Bologna / Borgo Panigale Airport

Ident: LIPE

Lat: 44,53540039

Long: 11,2887001

Platzhöhe: 123 ft

IataCode: BLQ

City: Bologna

Homepage: http://www.bologna-airport.it/?LN=UK

Metar

2022/08/13 18:20
LIPE 131820Z 09010KT CAVOK 27/12 Q1012

Taf

2022/08/13 18:00
TAF LIPE 131700Z 1318/1418 VRB05KT CAVOK
Gewünschte Webcam nicht vorhanden? Dann fügen Sie eine hinzu. Sie wird dann so schnell wie möglich freigeschaltet
Url: Title: